createdAt,value
2023-01-15T00:02:44.915Z,90
2023-01-15T00:05:44.824Z,90
2023-01-15T00:08:44.848Z,90
2023-01-15T00:11:44.817Z,91
2023-01-15T00:14:44.815Z,91
2023-01-15T00:17:44.818Z,91
2023-01-15T00:20:44.830Z,91
2023-01-15T00:23:44.854Z,91
2023-01-15T00:26:44.844Z,91
2023-01-15T00:29:44.855Z,91
2023-01-15T00:32:44.866Z,91
2023-01-15T00:35:44.862Z,91
2023-01-15T00:38:44.832Z,91
2023-01-15T00:41:44.830Z,91
2023-01-15T00:44:44.829Z,91
2023-01-15T00:47:44.836Z,91
2023-01-15T00:50:44.827Z,91
2023-01-15T00:53:44.849Z,91
2023-01-15T00:56:44.837Z,91
2023-01-15T00:59:44.844Z,91
2023-01-15T01:02:44.871Z,91
2023-01-15T01:05:44.839Z,91
2023-01-15T01:08:44.835Z,91
2023-01-15T01:11:44.823Z,91
2023-01-15T01:14:44.830Z,91
2023-01-15T01:17:44.822Z,91
2023-01-15T01:20:44.842Z,91
2023-01-15T01:23:44.862Z,91
2023-01-15T01:26:44.835Z,91
2023-01-15T01:29:44.853Z,91
2023-01-15T01:32:44.839Z,91
2023-01-15T01:35:44.841Z,91
2023-01-15T01:38:44.845Z,91
2023-01-15T01:41:44.846Z,91
2023-01-15T01:44:44.844Z,91
2023-01-15T01:47:44.831Z,91
2023-01-15T01:50:44.838Z,91
2023-01-15T01:53:44.844Z,91
2023-01-15T01:56:44.839Z,91
2023-01-15T01:59:44.844Z,91
2023-01-15T02:02:44.880Z,91
2023-01-15T02:05:44.851Z,91
2023-01-15T02:08:44.842Z,91
2023-01-15T02:11:44.852Z,91
2023-01-15T02:14:44.838Z,91
2023-01-15T02:17:44.830Z,91
2023-01-15T02:20:44.847Z,91
2023-01-15T02:23:44.867Z,91
2023-01-15T02:26:44.839Z,91
2023-01-15T02:29:44.835Z,92
2023-01-15T02:32:44.839Z,92
2023-01-15T02:35:44.854Z,92
2023-01-15T02:38:44.855Z,92
2023-01-15T02:41:44.838Z,92
2023-01-15T02:44:44.834Z,92
2023-01-15T02:47:44.848Z,92
2023-01-15T02:50:44.852Z,92
2023-01-15T02:53:44.856Z,92
2023-01-15T02:56:44.853Z,92
2023-01-15T02:59:44.847Z,92
2023-01-15T03:02:44.903Z,92
2023-01-15T03:05:44.847Z,92
2023-01-15T03:08:44.848Z,92
2023-01-15T03:11:44.848Z,92
2023-01-15T03:14:44.844Z,92
2023-01-15T03:17:44.860Z,92
2023-01-15T03:20:44.857Z,92
2023-01-15T03:23:44.867Z,92
2023-01-15T03:26:44.847Z,92
2023-01-15T03:29:44.856Z,92
2023-01-15T03:32:44.844Z,92
2023-01-15T03:38:44.868Z,92
2023-01-15T03:41:44.847Z,92
2023-01-15T03:44:44.866Z,92
2023-01-15T03:47:44.863Z,92
2023-01-15T03:53:44.905Z,92
2023-01-15T03:56:44.885Z,92
2023-01-15T03:59:44.849Z,92
2023-01-15T04:02:44.853Z,92
2023-01-15T04:05:44.853Z,92
2023-01-15T04:08:44.875Z,92
2023-01-15T04:11:44.888Z,92
2023-01-15T04:14:44.866Z,92
2023-01-15T04:17:44.867Z,92
2023-01-15T04:20:44.860Z,92
2023-01-15T04:23:44.887Z,92
2023-01-15T04:26:44.866Z,92
2023-01-15T04:29:44.867Z,92
2023-01-15T04:32:44.860Z,92
2023-01-15T04:35:44.865Z,92
2023-01-15T04:38:44.885Z,92
2023-01-15T04:41:44.874Z,92
2023-01-15T04:44:44.857Z,92
2023-01-15T04:47:44.874Z,92
2023-01-15T04:50:44.874Z,92
2023-01-15T04:53:44.897Z,92
2023-01-15T04:56:44.860Z,92
2023-01-15T04:59:44.864Z,92
2023-01-15T05:02:44.916Z,92
2023-01-15T05:05:44.885Z,92
2023-01-15T05:08:44.886Z,92
2023-01-15T05:11:44.888Z,92
2023-01-15T05:14:44.868Z,92
2023-01-15T05:17:44.869Z,92
2023-01-15T05:20:44.890Z,92
2023-01-15T05:23:44.885Z,92
2023-01-15T05:26:44.904Z,92
2023-01-15T05:29:44.874Z,92
2023-01-15T05:32:44.863Z,92
2023-01-15T05:35:44.890Z,92
2023-01-15T05:38:44.896Z,92
2023-01-15T05:41:44.887Z,92
2023-01-15T05:44:44.873Z,92
2023-01-15T05:47:44.884Z,92
2023-01-15T05:50:44.886Z,92
2023-01-15T05:53:44.886Z,92
2023-01-15T05:56:44.893Z,92
2023-01-15T05:59:44.892Z,92
2023-01-15T06:05:44.888Z,92
2023-01-15T06:08:44.920Z,92
2023-01-15T06:11:44.890Z,92
2023-01-15T06:14:44.894Z,91
2023-01-15T06:17:44.895Z,91
2023-01-15T06:20:44.898Z,91
2023-01-15T06:23:44.895Z,91
2023-01-15T06:26:44.904Z,91
2023-01-15T06:29:44.889Z,91
2023-01-15T06:32:44.891Z,91
2023-01-15T06:35:44.899Z,91
2023-01-15T06:38:44.902Z,91
2023-01-15T06:41:44.895Z,91
2023-01-15T06:44:44.892Z,91
2023-01-15T06:47:44.890Z,91
2023-01-15T06:50:44.898Z,91
2023-01-15T06:53:44.900Z,91
2023-01-15T06:56:44.890Z,91
2023-01-15T06:59:46.387Z,91
2023-01-15T07:02:44.896Z,91
2023-01-15T07:05:44.907Z,91
2023-01-15T07:08:44.898Z,91
2023-01-15T07:11:44.891Z,91
2023-01-15T07:14:44.898Z,91
2023-01-15T07:17:44.897Z,91
2023-01-15T07:20:44.897Z,91
2023-01-15T07:23:44.913Z,91
2023-01-15T07:26:44.891Z,91
2023-01-15T07:29:44.906Z,91
2023-01-15T07:32:44.899Z,91
2023-01-15T07:35:44.909Z,91
2023-01-15T07:38:44.898Z,91
2023-01-15T07:41:44.902Z,91
2023-01-15T07:44:44.898Z,91
2023-01-15T07:47:44.897Z,91
2023-01-15T07:50:44.898Z,91
2023-01-15T07:53:44.890Z,91
2023-01-15T07:56:44.899Z,91
2023-01-15T07:59:44.904Z,91
2023-01-15T08:02:44.888Z,91
2023-01-15T08:05:44.897Z,91
2023-01-15T08:08:44.911Z,91
2023-01-15T08:11:44.910Z,91
2023-01-15T08:14:44.899Z,91
2023-01-15T08:17:44.895Z,91
2023-01-15T08:20:46.218Z,91
2023-01-15T08:23:44.906Z,91
2023-01-15T08:26:44.896Z,91
2023-01-15T08:29:44.911Z,91
2023-01-15T08:32:44.930Z,91
2023-01-15T08:35:44.907Z,91
2023-01-15T08:38:44.910Z,91
2023-01-15T08:41:44.911Z,91
2023-01-15T08:44:44.941Z,91
2023-01-15T08:47:44.934Z,91
2023-01-15T08:50:44.925Z,91
2023-01-15T08:53:44.919Z,90
2023-01-15T08:56:44.928Z,90
2023-01-15T08:59:44.903Z,90
2023-01-15T09:02:44.917Z,90
2023-01-15T09:05:44.914Z,90
2023-01-15T09:08:44.919Z,90
2023-01-15T09:11:45.203Z,90
2023-01-15T09:14:56.131Z,90
2023-01-15T09:20:44.912Z,90
2023-01-15T09:23:44.955Z,90
2023-01-15T09:26:44.921Z,90
2023-01-15T09:29:44.916Z,90
2023-01-15T09:32:44.914Z,90
2023-01-15T09:35:44.919Z,90
2023-01-15T09:38:44.925Z,90
2023-01-15T09:41:44.913Z,90
2023-01-15T09:44:44.916Z,90
2023-01-15T09:47:44.925Z,90
2023-01-15T09:53:44.916Z,90
2023-01-15T09:56:44.920Z,90
2023-01-15T09:59:44.912Z,90
2023-01-15T10:02:44.920Z,90
2023-01-15T10:05:44.920Z,90
2023-01-15T10:08:44.934Z,90
2023-01-15T10:11:44.925Z,90
2023-01-15T10:14:44.935Z,90
2023-01-15T10:17:46.091Z,90
2023-01-15T10:20:45.195Z,90
2023-01-15T10:23:45.363Z,90
2023-01-15T10:26:44.929Z,90
2023-01-15T10:29:44.930Z,90
2023-01-15T10:32:57.071Z,90
2023-01-15T10:35:44.918Z,90
2023-01-15T10:41:44.922Z,90
2023-01-15T10:44:44.939Z,90
2023-01-15T10:47:44.923Z,90
2023-01-15T10:50:44.926Z,90
2023-01-15T10:53:44.933Z,90
2023-01-15T10:56:44.944Z,90
2023-01-15T10:59:44.933Z,90
2023-01-15T11:02:45.000Z,90
2023-01-15T11:09:08.377Z,90
2023-01-15T11:11:44.953Z,89
2023-01-15T11:14:44.930Z,89
2023-01-15T11:17:44.937Z,89
2023-01-15T11:23:44.925Z,89
2023-01-15T11:26:44.935Z,89
2023-01-15T11:29:44.925Z,89
2023-01-15T11:32:44.922Z,89
2023-01-15T11:35:44.925Z,89
2023-01-15T11:38:44.933Z,89
2023-01-15T11:41:44.929Z,89
2023-01-15T11:44:44.931Z,89
2023-01-15T11:47:45.037Z,89
2023-01-15T11:50:44.916Z,89
2023-01-15T11:53:45.067Z,89
2023-01-15T11:56:44.924Z,89
2023-01-15T11:59:44.930Z,89
2023-01-15T12:02:44.934Z,89
2023-01-15T12:05:44.929Z,88
2023-01-15T12:08:44.971Z,88
2023-01-15T12:11:44.941Z,88
2023-01-15T12:14:44.932Z,88
2023-01-15T12:17:44.926Z,88
2023-01-15T12:20:44.943Z,88
2023-01-15T12:23:44.939Z,88
2023-01-15T12:26:44.938Z,88
2023-01-15T12:29:44.936Z,88
2023-01-15T12:32:44.946Z,88
2023-01-15T12:35:44.964Z,88
2023-01-15T12:38:44.944Z,88
2023-01-15T12:41:44.946Z,88
2023-01-15T12:44:44.936Z,88
2023-01-15T12:47:44.952Z,87
2023-01-15T12:50:45.182Z,87
2023-01-15T12:53:44.950Z,87
2023-01-15T12:56:44.955Z,87
2023-01-15T12:59:44.955Z,87
2023-01-15T13:02:44.953Z,87
2023-01-15T13:05:44.952Z,87
2023-01-15T13:08:44.965Z,87
2023-01-15T13:11:44.948Z,87
2023-01-15T13:14:46.663Z,87
2023-01-15T13:17:44.949Z,87
2023-01-15T13:20:44.953Z,87
2023-01-15T13:23:44.960Z,87
2023-01-15T13:26:44.957Z,87
2023-01-15T13:29:44.950Z,86
2023-01-15T13:32:44.955Z,86
2023-01-15T13:35:44.968Z,86
2023-01-15T13:38:44.954Z,86
2023-01-15T13:41:44.972Z,86
2023-01-15T13:44:44.952Z,86
2023-01-15T13:47:44.963Z,86
2023-01-15T13:50:44.971Z,86
2023-01-15T13:53:44.956Z,86
2023-01-15T13:56:44.972Z,86
2023-01-15T13:59:44.955Z,86
2023-01-15T14:02:44.973Z,86
2023-01-15T14:05:44.959Z,86
2023-01-15T14:08:44.971Z,86
2023-01-15T14:11:44.974Z,86
2023-01-15T14:14:44.958Z,85
2023-01-15T14:17:44.975Z,85
2023-01-15T14:20:44.954Z,85
2023-01-15T14:23:44.960Z,85
2023-01-15T14:26:44.962Z,85
2023-01-15T14:29:44.966Z,85
2023-01-15T14:32:45.423Z,85
2023-01-15T14:35:44.964Z,85
2023-01-15T14:38:44.960Z,85
2023-01-15T14:41:44.972Z,85
2023-01-15T14:44:44.965Z,85
2023-01-15T14:47:44.971Z,85
2023-01-15T14:50:44.973Z,84
2023-01-15T14:53:44.987Z,84
2023-01-15T14:56:44.969Z,84
2023-01-15T15:02:45.021Z,84
2023-01-15T15:05:44.968Z,84
2023-01-15T15:08:44.971Z,84
2023-01-15T15:11:44.974Z,84
2023-01-15T15:14:45.966Z,84
2023-01-15T15:17:44.978Z,84
2023-01-15T15:20:44.975Z,84
2023-01-15T15:23:44.961Z,83
2023-01-15T15:26:44.982Z,83
2023-01-15T15:29:44.977Z,83
2023-01-15T15:32:44.984Z,83
2023-01-15T15:35:44.969Z,83
2023-01-15T15:38:44.965Z,83
2023-01-15T15:41:44.974Z,83
2023-01-15T15:44:44.976Z,83
2023-01-15T15:47:44.986Z,83
2023-01-15T15:50:44.969Z,83
2023-01-15T15:53:44.977Z,83
2023-01-15T15:56:44.978Z,83
2023-01-15T15:59:44.973Z,83
2023-01-15T16:02:45.043Z,83
2023-01-15T16:05:44.981Z,83
2023-01-15T16:08:44.980Z,83
2023-01-15T16:11:44.978Z,83
2023-01-15T16:14:44.976Z,83
2023-01-15T16:17:44.980Z,83
2023-01-15T16:20:44.992Z,83
2023-01-15T16:23:44.977Z,83
2023-01-15T16:26:45.037Z,83
2023-01-15T16:29:44.969Z,83
2023-01-15T16:32:44.970Z,83
2023-01-15T16:35:44.976Z,83
2023-01-15T16:38:44.972Z,83
2023-01-15T16:41:44.980Z,83
2023-01-15T16:44:44.977Z,83
2023-01-15T16:47:44.983Z,83
2023-01-15T16:50:44.976Z,83
2023-01-15T16:53:44.972Z,83
2023-01-15T16:56:44.982Z,83
2023-01-15T16:59:44.976Z,83
2023-01-15T17:02:45.095Z,83
2023-01-15T17:05:44.971Z,83
2023-01-15T17:08:44.975Z,83
2023-01-15T17:11:44.982Z,83
2023-01-15T17:14:44.985Z,83
2023-01-15T17:17:44.989Z,83
2023-01-15T17:20:44.977Z,83
2023-01-15T17:23:44.999Z,83
2023-01-15T17:26:44.986Z,83
2023-01-15T17:29:44.977Z,83
2023-01-15T17:32:44.987Z,83
2023-01-15T17:35:44.977Z,83
2023-01-15T17:38:44.984Z,83
2023-01-15T17:41:45.000Z,83
2023-01-15T17:44:44.990Z,83
2023-01-15T17:47:44.976Z,83
2023-01-15T17:50:44.989Z,83
2023-01-15T17:53:45.003Z,83
2023-01-15T17:56:44.992Z,83
2023-01-15T17:59:44.991Z,83
2023-01-15T18:02:45.034Z,83
2023-01-15T18:05:44.991Z,83
2023-01-15T18:08:44.984Z,83
2023-01-15T18:11:44.985Z,83
2023-01-15T18:14:44.981Z,83
2023-01-15T18:17:44.992Z,83
2023-01-15T18:20:44.994Z,83
2023-01-15T18:23:44.988Z,83
2023-01-15T18:26:44.980Z,83
2023-01-15T18:29:44.991Z,83
2023-01-15T18:32:45.006Z,83
2023-01-15T18:35:44.999Z,83
2023-01-15T18:38:44.988Z,83
2023-01-15T18:41:45.004Z,83
2023-01-15T18:44:44.987Z,83
2023-01-15T18:47:45.015Z,83
2023-01-15T18:50:45.002Z,83
2023-01-15T18:53:44.991Z,83
2023-01-15T18:56:44.989Z,83
2023-01-15T18:59:44.989Z,83
2023-01-15T19:02:45.009Z,83
2023-01-15T19:05:44.995Z,83
2023-01-15T19:08:44.991Z,83
2023-01-15T19:11:45.006Z,83
2023-01-15T19:14:44.999Z,83
2023-01-15T19:17:44.993Z,83
2023-01-15T19:20:44.987Z,83
2023-01-15T19:23:44.992Z,83
2023-01-15T19:26:44.999Z,83
2023-01-15T19:29:44.988Z,83
2023-01-15T19:32:44.997Z,83
2023-01-15T19:35:45.007Z,83
2023-01-15T19:38:45.000Z,83
2023-01-15T19:41:45.006Z,83
2023-01-15T19:44:46.343Z,83
2023-01-15T19:47:45.618Z,83
2023-01-15T19:50:45.622Z,83
2023-01-15T19:53:45.626Z,83
2023-01-15T19:56:45.631Z,83
2023-01-15T19:59:45.614Z,83
2023-01-15T20:02:45.634Z,83
2023-01-15T20:05:45.612Z,83
2023-01-15T20:08:45.606Z,83
2023-01-15T20:11:45.612Z,83
2023-01-15T20:14:47.334Z,83
2023-01-15T20:17:45.627Z,83
2023-01-15T20:20:45.612Z,83
2023-01-15T20:23:45.630Z,83
2023-01-15T20:26:45.611Z,83
2023-01-15T20:29:45.614Z,83
2023-01-15T20:32:45.626Z,83
2023-01-15T20:35:45.630Z,83
2023-01-15T20:38:45.618Z,83
2023-01-15T20:41:45.615Z,83
2023-01-15T20:44:45.615Z,83
2023-01-15T20:47:45.630Z,83
2023-01-15T20:50:45.615Z,83
2023-01-15T20:53:45.631Z,83
2023-01-15T20:56:45.616Z,83
2023-01-15T20:59:45.608Z,83
2023-01-15T21:02:45.617Z,83
2023-01-15T21:05:45.622Z,83
2023-01-15T21:11:45.619Z,84
2023-01-15T21:14:45.618Z,84
2023-01-15T21:17:45.644Z,84
2023-01-15T21:20:45.627Z,84
2023-01-15T21:23:45.795Z,84
2023-01-15T21:26:45.621Z,84
2023-01-15T21:29:45.627Z,84
2023-01-15T21:32:45.671Z,84
2023-01-15T21:35:45.626Z,84
2023-01-15T21:38:45.622Z,84
2023-01-15T21:41:45.651Z,84
2023-01-15T21:44:45.639Z,84
2023-01-15T21:47:45.627Z,84
2023-01-15T21:50:45.675Z,84
2023-01-15T21:53:45.641Z,84
2023-01-15T21:56:45.630Z,84
2023-01-15T21:59:45.644Z,84
2023-01-15T22:02:45.669Z,84
2023-01-15T22:05:45.661Z,84
2023-01-15T22:08:45.637Z,84
2023-01-15T22:11:45.632Z,84
2023-01-15T22:14:45.640Z,84
2023-01-15T22:17:45.638Z,84
2023-01-15T22:20:45.640Z,84
2023-01-15T22:23:47.011Z,84
2023-01-15T22:26:45.632Z,84
2023-01-15T22:32:45.634Z,84
2023-01-15T22:35:45.660Z,84
2023-01-15T22:38:45.642Z,84
2023-01-15T22:41:45.633Z,84
2023-01-15T22:44:45.644Z,84
2023-01-15T22:47:45.639Z,85
2023-01-15T22:53:45.647Z,85
2023-01-15T22:56:45.633Z,85
2023-01-15T22:59:45.642Z,85
2023-01-15T23:02:45.643Z,85
2023-01-15T23:05:45.631Z,85
2023-01-15T23:08:45.634Z,85
2023-01-15T23:11:45.646Z,85
2023-01-15T23:14:45.648Z,85
2023-01-15T23:17:45.643Z,85
2023-01-15T23:20:45.650Z,85
2023-01-15T23:23:45.637Z,85
2023-01-15T23:26:45.633Z,85
2023-01-15T23:29:45.652Z,85
2023-01-15T23:32:45.648Z,85
2023-01-15T23:35:45.651Z,85
2023-01-15T23:38:45.641Z,85
2023-01-15T23:41:45.650Z,85
2023-01-15T23:44:45.645Z,85
2023-01-15T23:50:45.646Z,85
2023-01-15T23:53:45.641Z,85
2023-01-15T23:56:45.643Z,85
2023-01-15T23:59:45.653Z,85
